Terminal Aerodrome Forecast
Issued by NWS Lake Charles, LA

Home | Current Version | Previous Version | Text Only | Print | Product List | Glossary On
Versions: 1 2 3 4 5 6 7 8 9 10 11 12 13 14
515
FTUS44 KLCH 221720
TAFBPT
TAF
KBPT 221720Z 2218/2318 20007KT P6SM VCTS SCT035 BKN050CB
      TEMPO 2218/2222 VRB15G25KT 2SM TSRA BKN025CB
     FM230200 20003KT P6SM VCTS SCT025CB BKN250
     FM231400 24007KT P6SM VCTS SCT025CB BKN250 PROB30 2314/2318 2SM
      TSRA BKN025CB=

USA.gov is the U.S. government's official web portal to all federal, state and local government web resources and services.